Fugro Searcher — 3EUY6 — position and weather

sailwx.info

Track history (hours):
 
Tides and Currents Weather Stations Pressure Air Temp Water Temp Dewpoint Dewpoint Depression Visibility Wind Speed Wind Dir Waves Ship Positions

Fugro Searcher

Last reported at 2018-Aug-10 06:45 UTC. Time now 2018-Aug-14 13:46 UTC.
Position N 47°35' W 052°07'.

Length 65 m; draft 5.2 m.

Type: Ship. MMSI: 371931000.

Date/timePositionNaut miles runAvg speedWind from/ knotsBaromVisibWave heightAir tempDewpointWater temp
2018-Aug-10 06:45N 47°35' W 052°07'1 3.8
2018-Aug-10 06:29N 47°34' W 052°06'1 0.2
2018-Aug-10 04:09N 47°35' W 052°06'1 2.6
2018-Aug-10 03:52N 47°35' W 052°07'2 3.5
2018-Aug-10 03:26N 47°34' W 052°06'2 0.7
2018-Aug-10 01:02N 47°35' W 052°07'0 3.9
2018-Aug-10 00:57N 47°35' W 052°07'2 3.3
2018-Aug-10 00:11N 47°33' W 052°06'17 2.6
2018-Aug-09 17:39N 47°34' W 052°31'2 9.2
2018-Aug-09 17:26N 47°34' W 052°33'6 2.8
2018-Aug-09 15:25N 47°34' W 052°42'0 0.0
2018-Aug-09 14:52N 47°34' W 052°42'0 0.0
2018-Aug-09 14:25N 47°34' W 052°42'0 0.0
2018-Aug-09 13:55N 47°34' W 052°42'0 0.0
2018-Aug-09 13:25N 47°34' W 052°42'0 0.0
2018-Aug-09 12:58N 47°34' W 052°42'0 0.0
2018-Aug-09 12:25N 47°34' W 052°42'0 0.0
2018-Aug-09 11:55N 47°34' W 052°42'0 0.0
2018-Aug-09 11:25N 47°34' W 052°42'0 0.0
2018-Aug-09 10:55N 47°34' W 052°42'0 0.0
2018-Aug-09 10:25N 47°34' W 052°42'0 0.0
2018-Aug-09 09:55N 47°34' W 052°42'0 0.0
2018-Aug-09 09:22N 47°34' W 052°42'0 0.0
2018-Aug-09 08:58N 47°34' W 052°42'0 0.0
2018-Aug-09 08:25N 47°34' W 052°42'0 0.0
2018-Aug-09 07:25N 47°34' W 052°42'0 0.0
2018-Aug-09 06:04N 47°34' W 052°42'0 0.0
2018-Aug-09 05:58N 47°34' W 052°42'0 0.0
2018-Aug-09 05:28N 47°34' W 052°42'0 0.0
2018-Aug-09 04:55N 47°34' W 052°42'0 0.0
2018-Aug-09 04:25N 47°34' W 052°42'0 0.0
2018-Aug-09 03:55N 47°34' W 052°42'0 0.0
2018-Aug-09 03:25N 47°34' W 052°42'0 0.0
2018-Aug-09 02:58N 47°34' W 052°42'0 0.0
2018-Aug-09 02:28N 47°34' W 052°42'0 0.0
2018-Aug-09 01:55N 47°34' W 052°42'0 0.0
2018-Aug-09 01:25N 47°34' W 052°42'0 0.0
2018-Aug-09 00:55N 47°34' W 052°42'0 0.0
2018-Aug-09 00:25N 47°34' W 052°42'0 0.0
2018-Aug-08 23:52N 47°34' W 052°42'0 0.0
2018-Aug-08 23:25N 47°34' W 052°42'0 0.0
2018-Aug-08 22:55N 47°34' W 052°42'0 0.0
2018-Aug-08 22:25N 47°34' W 052°42'0 0.0
2018-Aug-08 21:58N 47°34' W 052°42'0 0.0
2018-Aug-08 21:28N 47°34' W 052°42'0 0.0
2018-Aug-08 20:55N 47°34' W 052°42'0 0.0
2018-Aug-08 20:25N 47°34' W 052°42'0 0.0
2018-Aug-08 19:55N 47°34' W 052°42'0 0.0
2018-Aug-08 19:25N 47°34' W 052°42'0 0.0
2018-Aug-08 18:55N 47°34' W 052°42'0 0.0
2018-Aug-08 18:25N 47°34' W 052°42'0 0.0
2018-Aug-08 17:55N 47°34' W 052°42'0 0.0
2018-Aug-08 17:22N 47°34' W 052°42'0 0.0
2018-Aug-08 16:46N 47°34' W 052°42'0 0.0
2018-Aug-08 16:25N 47°34' W 052°42'0 0.0
2018-Aug-08 15:55N 47°34' W 052°42'0 0.0
2018-Aug-08 15:25N 47°34' W 052°42'0 0.0
2018-Aug-08 14:52N 47°34' W 052°42'0 0.0
2018-Aug-08 14:28N 47°34' W 052°42'0 0.0
2018-Aug-08 13:58N 47°34' W 052°42'0 0.0
2018-Aug-08 13:25N 47°34' W 052°42'0 0.0
2018-Aug-08 12:58N 47°34' W 052°42'0 0.0
2018-Aug-08 12:25N 47°34' W 052°42'0 0.0
2018-Aug-08 11:49N 47°34' W 052°42'0 0.0
2018-Aug-08 11:25N 47°34' W 052°42'0 0.0
2018-Aug-08 10:55N 47°34' W 052°42'0 0.0
2018-Aug-08 10:25N 47°34' W 052°42'0 0.0
2018-Aug-08 09:55N 47°34' W 052°42'0 0.0
2018-Aug-08 09:28N 47°34' W 052°42'0 0.0
2018-Aug-08 08:55N 47°34' W 052°42'0 0.0
2018-Aug-08 08:25N 47°34' W 052°42'0 0.0
2018-Aug-08 07:55N 47°34' W 052°42'0 0.0
2018-Aug-08 07:25N 47°34' W 052°42'0 0.0
2018-Aug-08 06:55N 47°34' W 052°42'0 0.0
2018-Aug-08 06:25N 47°34' W 052°42'0 0.0
2018-Aug-08 05:55N 47°34' W 052°42'0 0.0
2018-Aug-08 05:28N 47°34' W 052°42'0 0.0
2018-Aug-08 04:55N 47°34' W 052°42'0 0.0
2018-Aug-08 04:25N 47°34' W 052°42'0 0.0
2018-Aug-08 03:58N 47°34' W 052°42'0 0.0
2018-Aug-08 03:31N 47°34' W 052°42'0 0.0
2018-Aug-08 02:55N 47°34' W 052°42'0 0.0
2018-Aug-08 02:28N 47°34' W 052°42'0 0.0
2018-Aug-08 01:52N 47°34' W 052°42'0 0.0
2018-Aug-08 01:31N 47°34' W 052°42'0 0.0
2018-Aug-08 00:55N 47°34' W 052°42'0 0.0
2018-Aug-08 00:25N 47°34' W 052°42'0 0.0
2018-Aug-07 23:58N 47°34' W 052°42'0 0.0
2018-Aug-07 23:25N 47°34' W 052°42'0 0.0
2018-Aug-07 22:58N 47°34' W 052°42'0 0.0
2018-Aug-07 22:25N 47°34' W 052°42'0 0.0
2018-Aug-07 21:55N 47°34' W 052°42'0 0.0
2018-Aug-07 21:28N 47°34' W 052°42'0 0.0
2018-Aug-07 20:55N 47°34' W 052°42'0 0.0
2018-Aug-07 20:25N 47°34' W 052°42'0 0.0
2018-Aug-07 19:55N 47°34' W 052°42'0 0.0
2018-Aug-07 19:19N 47°34' W 052°42'0 0.0
2018-Aug-07 18:55N 47°34' W 052°42'0 0.0
2018-Aug-07 18:31N 47°34' W 052°42'0 0.0
2018-Aug-07 17:58N 47°34' W 052°42'0 0.0
2018-Aug-07 17:31N 47°34' W 052°42'0 0.0
2018-Aug-07 16:52N 47°34' W 052°42'0 0.0
2018-Aug-07 16:19N 47°34' W 052°42'0 0.0
2018-Aug-07 15:58N 47°34' W 052°42'0 0.0
2018-Aug-07 15:19N 47°34' W 052°42'0 0.0
2018-Aug-07 14:55N 47°34' W 052°42'0 0.0
2018-Aug-07 14:28N 47°34' W 052°42'0 0.0
2018-Aug-07 14:00N 47°34' W 052°42'0 0.0
2018-Aug-07 13:28N 47°34' W 052°42'0 0.0
2018-Aug-07 12:55N 47°34' W 052°42'0 0.0
2018-Aug-07 12:28N 47°34' W 052°42'0 0.0
2018-Aug-07 11:58N 47°34' W 052°42'0 0.0
2018-Aug-07 11:28N 47°34' W 052°42'0 0.0
2018-Aug-07 10:58N 47°34' W 052°42'0 0.0
2018-Aug-07 10:28N 47°34' W 052°42'0 0.0
2018-Aug-07 09:58N 47°34' W 052°42'0 0.0
2018-Aug-07 09:28N 47°34' W 052°42'0 0.0
2018-Aug-07 08:58N 47°34' W 052°42'0 0.0
2018-Aug-07 08:25N 47°34' W 052°42'0 0.0
2018-Aug-07 07:46N 47°34' W 052°42'0 0.0
2018-Aug-07 07:28N 47°34' W 052°42'0 0.0
2018-Aug-07 06:58N 47°34' W 052°42'0 0.0
2018-Aug-07 06:28N 47°34' W 052°42'0 0.0
2018-Aug-07 05:58N 47°34' W 052°42'0 0.0
2018-Aug-07 05:28N 47°34' W 052°42'0 0.0
2018-Aug-07 04:58N 47°34' W 052°42'0 0.0
2018-Aug-07 04:28N 47°34' W 052°42'0 0.0
2018-Aug-07 03:58N 47°34' W 052°42'0 0.0
2018-Aug-07 03:28N 47°34' W 052°42'0 0.0
2018-Aug-07 02:58N 47°34' W 052°42'0 0.0
2018-Aug-07 02:28N 47°34' W 052°42'0 0.0
2018-Aug-07 01:58N 47°34' W 052°42'0 0.0
2018-Aug-07 01:28N 47°34' W 052°42'0 0.0
2018-Aug-07 00:58N 47°34' W 052°42'0 0.0
2018-Aug-07 00:22N 47°34' W 052°42'0 0.0
2018-Aug-06 23:58N 47°34' W 052°42'0 0.0
2018-Aug-06 23:28N 47°34' W 052°42'0 0.0
2018-Aug-06 22:58N 47°34' W 052°42'0 0.0
2018-Aug-06 22:28N 47°34' W 052°42'0 0.0
2018-Aug-06 21:58N 47°34' W 052°42'0 0.0
2018-Aug-06 21:28N 47°34' W 052°42'0 0.0
2018-Aug-06 20:55N 47°34' W 052°42'0 0.0
2018-Aug-06 20:16N 47°34' W 052°42'0 0.0
2018-Aug-06 19:58N 47°34' W 052°42'0 0.0
2018-Aug-06 19:28N 47°34' W 052°42'0 0.0
2018-Aug-06 18:52N 47°34' W 052°42'0 0.0
2018-Aug-06 18:28N 47°34' W 052°42'0 0.0
2018-Aug-06 17:58N 47°34' W 052°42'0 0.0
2018-Aug-06 17:28N 47°34' W 052°42'0 0.0
2018-Aug-06 16:58N 47°34' W 052°42'0 0.0
2018-Aug-06 16:28N 47°34' W 052°42'0 0.0
2018-Aug-06 15:58N 47°34' W 052°42'0 0.0
2018-Aug-06 15:28N 47°34' W 052°42'0 0.0
2018-Aug-06 14:58N 47°34' W 052°42'0 0.0
2018-Aug-06 14:28N 47°34' W 052°42'0 0.0
2018-Aug-06 13:58N 47°34' W 052°42'0 0.0
2018-Aug-06 13:28N 47°34' W 052°42'0 0.1
2018-Aug-06 08:19N 47°34' W 052°42'0 0.1
2018-Aug-06 07:56N 47°34' W 052°42'4 5.8
2018-Aug-06 07:19N 47°33' W 052°37'2 5.0
2018-Aug-06 06:59N 47°33' W 052°34'3 4.9
2018-Aug-06 06:28N 47°32' W 052°31'2 4.9
2018-Aug-06 05:58N 47°30' W 052°28'3 5.1
2018-Aug-06 05:28N 47°29' W 052°24'3 5.0
2018-Aug-06 04:57N 47°28' W 052°21'3 5.2
2018-Aug-06 04:27N 47°27' W 052°17'3 5.1
2018-Aug-06 03:56N 47°26' W 052°14'2 5.0
2018-Aug-06 03:29N 47°25' W 052°11'  
Track history (hours):
 
Tides and Currents Weather Stations Pressure Air Temp Water Temp Dewpoint Dewpoint Depression Visibility Wind Speed Wind Dir Waves Ship Positions

Fugro Searcher

Last reported at 2018-Aug-10 06:45 UTC. Time now 2018-Aug-14 13:46 UTC.
Position N 47°35' W 052°07'.

Length 65 m; draft 5.2 m.

Type: Ship. MMSI: 371931000.

Date/timePositionNaut miles runAvg speedWind from/ knotsBaromVisibWave heightAir tempDewpointWater temp
2018-Aug-10 06:45N 47°35' W 052°07'1 3.8
2018-Aug-10 06:29N 47°34' W 052°06'1 0.2
2018-Aug-10 04:09N 47°35' W 052°06'1 2.6
2018-Aug-10 03:52N 47°35' W 052°07'2 3.5
2018-Aug-10 03:26N 47°34' W 052°06'2 0.7
2018-Aug-10 01:02N 47°35' W 052°07'0 3.9
2018-Aug-10 00:57N 47°35' W 052°07'2 3.3
2018-Aug-10 00:11N 47°33' W 052°06'17 2.6
2018-Aug-09 17:39N 47°34' W 052°31'2 9.2
2018-Aug-09 17:26N 47°34' W 052°33'6 2.8
2018-Aug-09 15:25N 47°34' W 052°42'0 0.0
2018-Aug-09 14:52N 47°34' W 052°42'0 0.0
2018-Aug-09 14:25N 47°34' W 052°42'0 0.0
2018-Aug-09 13:55N 47°34' W 052°42'0 0.0
2018-Aug-09 13:25N 47°34' W 052°42'0 0.0
2018-Aug-09 12:58N 47°34' W 052°42'0 0.0
2018-Aug-09 12:25N 47°34' W 052°42'0 0.0
2018-Aug-09 11:55N 47°34' W 052°42'0 0.0
2018-Aug-09 11:25N 47°34' W 052°42'0 0.0
2018-Aug-09 10:55N 47°34' W 052°42'0 0.0
2018-Aug-09 10:25N 47°34' W 052°42'0 0.0
2018-Aug-09 09:55N 47°34' W 052°42'0 0.0
2018-Aug-09 09:22N 47°34' W 052°42'0 0.0
2018-Aug-09 08:58N 47°34' W 052°42'0 0.0
2018-Aug-09 08:25N 47°34' W 052°42'0 0.0
2018-Aug-09 07:25N 47°34' W 052°42'0 0.0
2018-Aug-09 06:04N 47°34' W 052°42'0 0.0
2018-Aug-09 05:58N 47°34' W 052°42'0 0.0
2018-Aug-09 05:28N 47°34' W 052°42'0 0.0
2018-Aug-09 04:55N 47°34' W 052°42'0 0.0
2018-Aug-09 04:25N 47°34' W 052°42'0 0.0
2018-Aug-09 03:55N 47°34' W 052°42'0 0.0
2018-Aug-09 03:25N 47°34' W 052°42'0 0.0
2018-Aug-09 02:58N 47°34' W 052°42'0 0.0
2018-Aug-09 02:28N 47°34' W 052°42'0 0.0
2018-Aug-09 01:55N 47°34' W 052°42'0 0.0
2018-Aug-09 01:25N 47°34' W 052°42'0 0.0
2018-Aug-09 00:55N 47°34' W 052°42'0 0.0
2018-Aug-09 00:25N 47°34' W 052°42'0 0.0
2018-Aug-08 23:52N 47°34' W 052°42'0 0.0
2018-Aug-08 23:25N 47°34' W 052°42'0 0.0
2018-Aug-08 22:55N 47°34' W 052°42'0 0.0
2018-Aug-08 22:25N 47°34' W 052°42'0 0.0
2018-Aug-08 21:58N 47°34' W 052°42'0 0.0
2018-Aug-08 21:28N 47°34' W 052°42'0 0.0
2018-Aug-08 20:55N 47°34' W 052°42'0 0.0
2018-Aug-08 20:25N 47°34' W 052°42'0 0.0
2018-Aug-08 19:55N 47°34' W 052°42'0 0.0
2018-Aug-08 19:25N 47°34' W 052°42'0 0.0
2018-Aug-08 18:55N 47°34' W 052°42'0 0.0
2018-Aug-08 18:25N 47°34' W 052°42'0 0.0
2018-Aug-08 17:55N 47°34' W 052°42'0 0.0
2018-Aug-08 17:22N 47°34' W 052°42'0 0.0
2018-Aug-08 16:46N 47°34' W 052°42'0 0.0
2018-Aug-08 16:25N 47°34' W 052°42'0 0.0
2018-Aug-08 15:55N 47°34' W 052°42'0 0.0
2018-Aug-08 15:25N 47°34' W 052°42'0 0.0
2018-Aug-08 14:52N 47°34' W 052°42'0 0.0
2018-Aug-08 14:28N 47°34' W 052°42'0 0.0
2018-Aug-08 13:58N 47°34' W 052°42'0 0.0
2018-Aug-08 13:25N 47°34' W 052°42'0 0.0
2018-Aug-08 12:58N 47°34' W 052°42'0 0.0
2018-Aug-08 12:25N 47°34' W 052°42'0 0.0
2018-Aug-08 11:49N 47°34' W 052°42'0 0.0
2018-Aug-08 11:25N 47°34' W 052°42'0 0.0
2018-Aug-08 10:55N 47°34' W 052°42'0 0.0
2018-Aug-08 10:25N 47°34' W 052°42'0 0.0
2018-Aug-08 09:55N 47°34' W 052°42'0 0.0
2018-Aug-08 09:28N 47°34' W 052°42'0 0.0
2018-Aug-08 08:55N 47°34' W 052°42'0 0.0
2018-Aug-08 08:25N 47°34' W 052°42'0 0.0
2018-Aug-08 07:55N 47°34' W 052°42'0 0.0
2018-Aug-08 07:25N 47°34' W 052°42'0 0.0
2018-Aug-08 06:55N 47°34' W 052°42'0 0.0
2018-Aug-08 06:25N 47°34' W 052°42'0 0.0
2018-Aug-08 05:55N 47°34' W 052°42'0 0.0
2018-Aug-08 05:28N 47°34' W 052°42'0 0.0
2018-Aug-08 04:55N 47°34' W 052°42'0 0.0
2018-Aug-08 04:25N 47°34' W 052°42'0 0.0
2018-Aug-08 03:58N 47°34' W 052°42'0 0.0
2018-Aug-08 03:31N 47°34' W 052°42'0 0.0
2018-Aug-08 02:55N 47°34' W 052°42'0 0.0
2018-Aug-08 02:28N 47°34' W 052°42'0 0.0
2018-Aug-08 01:52N 47°34' W 052°42'0 0.0
2018-Aug-08 01:31N 47°34' W 052°42'0 0.0
2018-Aug-08 00:55N 47°34' W 052°42'0 0.0
2018-Aug-08 00:25N 47°34' W 052°42'0 0.0
2018-Aug-07 23:58N 47°34' W 052°42'0 0.0
2018-Aug-07 23:25N 47°34' W 052°42'0 0.0
2018-Aug-07 22:58N 47°34' W 052°42'0 0.0
2018-Aug-07 22:25N 47°34' W 052°42'0 0.0
2018-Aug-07 21:55N 47°34' W 052°42'0 0.0
2018-Aug-07 21:28N 47°34' W 052°42'0 0.0
2018-Aug-07 20:55N 47°34' W 052°42'0 0.0
2018-Aug-07 20:25N 47°34' W 052°42'0 0.0
2018-Aug-07 19:55N 47°34' W 052°42'0 0.0
2018-Aug-07 19:19N 47°34' W 052°42'0 0.0
2018-Aug-07 18:55N 47°34' W 052°42'0 0.0
2018-Aug-07 18:31N 47°34' W 052°42'0 0.0
2018-Aug-07 17:58N 47°34' W 052°42'0 0.0
2018-Aug-07 17:31N 47°34' W 052°42'0 0.0
2018-Aug-07 16:52N 47°34' W 052°42'0 0.0
2018-Aug-07 16:19N 47°34' W 052°42'0 0.0
2018-Aug-07 15:58N 47°34' W 052°42'0 0.0
2018-Aug-07 15:19N 47°34' W 052°42'0 0.0
2018-Aug-07 14:55N 47°34' W 052°42'0 0.0
2018-Aug-07 14:28N 47°34' W 052°42'0 0.0
2018-Aug-07 14:00N 47°34' W 052°42'0 0.0
2018-Aug-07 13:28N 47°34' W 052°42'0 0.0
2018-Aug-07 12:55N 47°34' W 052°42'0 0.0
2018-Aug-07 12:28N 47°34' W 052°42'0 0.0
2018-Aug-07 11:58N 47°34' W 052°42'0 0.0
2018-Aug-07 11:28N 47°34' W 052°42'0 0.0
2018-Aug-07 10:58N 47°34' W 052°42'0 0.0
2018-Aug-07 10:28N 47°34' W 052°42'0 0.0
2018-Aug-07 09:58N 47°34' W 052°42'0 0.0
2018-Aug-07 09:28N 47°34' W 052°42'0 0.0
2018-Aug-07 08:58N 47°34' W 052°42'0 0.0
2018-Aug-07 08:25N 47°34' W 052°42'0 0.0
2018-Aug-07 07:46N 47°34' W 052°42'0 0.0
2018-Aug-07 07:28N 47°34' W 052°42'0 0.0
2018-Aug-07 06:58N 47°34' W 052°42'0 0.0
2018-Aug-07 06:28N 47°34' W 052°42'0 0.0
2018-Aug-07 05:58N 47°34' W 052°42'0 0.0
2018-Aug-07 05:28N 47°34' W 052°42'0 0.0
2018-Aug-07 04:58N 47°34' W 052°42'0 0.0
2018-Aug-07 04:28N 47°34' W 052°42'0 0.0
2018-Aug-07 03:58N 47°34' W 052°42'0 0.0
2018-Aug-07 03:28N 47°34' W 052°42'0 0.0
2018-Aug-07 02:58N 47°34' W 052°42'0 0.0
2018-Aug-07 02:28N 47°34' W 052°42'0 0.0
2018-Aug-07 01:58N 47°34' W 052°42'0 0.0
2018-Aug-07 01:28N 47°34' W 052°42'0 0.0
2018-Aug-07 00:58N 47°34' W 052°42'0 0.0
2018-Aug-07 00:22N 47°34' W 052°42'0 0.0
2018-Aug-06 23:58N 47°34' W 052°42'0 0.0
2018-Aug-06 23:28N 47°34' W 052°42'0 0.0
2018-Aug-06 22:58N 47°34' W 052°42'0 0.0
2018-Aug-06 22:28N 47°34' W 052°42'0 0.0
2018-Aug-06 21:58N 47°34' W 052°42'0 0.0
2018-Aug-06 21:28N 47°34' W 052°42'0 0.0
2018-Aug-06 20:55N 47°34' W 052°42'0 0.0
2018-Aug-06 20:16N 47°34' W 052°42'0 0.0
2018-Aug-06 19:58N 47°34' W 052°42'0 0.0
2018-Aug-06 19:28N 47°34' W 052°42'0 0.0
2018-Aug-06 18:52N 47°34' W 052°42'0 0.0
2018-Aug-06 18:28N 47°34' W 052°42'0 0.0
2018-Aug-06 17:58N 47°34' W 052°42'0 0.0
2018-Aug-06 17:28N 47°34' W 052°42'0 0.0
2018-Aug-06 16:58N 47°34' W 052°42'0 0.0
2018-Aug-06 16:28N 47°34' W 052°42'0 0.0
2018-Aug-06 15:58N 47°34' W 052°42'0 0.0
2018-Aug-06 15:28N 47°34' W 052°42'0 0.0
2018-Aug-06 14:58N 47°34' W 052°42'0 0.0
2018-Aug-06 14:28N 47°34' W 052°42'0 0.0
2018-Aug-06 13:58N 47°34' W 052°42'0 0.0
2018-Aug-06 13:28N 47°34' W 052°42'0 0.1
2018-Aug-06 08:19N 47°34' W 052°42'0 0.1
2018-Aug-06 07:56N 47°34' W 052°42'4 5.8
2018-Aug-06 07:19N 47°33' W 052°37'2 5.0
2018-Aug-06 06:59N 47°33' W 052°34'3 4.9
2018-Aug-06 06:28N 47°32' W 052°31'2 4.9
2018-Aug-06 05:58N 47°30' W 052°28'3 5.1
2018-Aug-06 05:28N 47°29' W 052°24'3 5.0
2018-Aug-06 04:57N 47°28' W 052°21'3 5.2
2018-Aug-06 04:27N 47°27' W 052°17'3 5.1
2018-Aug-06 03:56N 47°26' W 052°14'2 5.0
2018-Aug-06 03:29N 47°25' W 052°11'  

Dump ship's entire track history